Latest Coastal Weather Observations for Portland Harbour

IDV60701

Issued at 1:12 am EST Thursday 3 September 2026 (issued every 10 minutes, with the page automatically refreshed every 10 minutes)

About coastal observations | Map of coastal stations | Coastal observations for VIC | Marine services | Other Formats
Station Details ID: 090192 Name: PORTLAND NTC AWS Lat: -38.34 Lon: 141.61 Height: 0.0 m
Data from the previous 72 hours. | See also: Recent months for locations in Victoria
Date/Time
EST
Wind Sea
Height
m
Swell Vis
km
Cloud Weather Temp
°C
Press
MSL
hPa
Rain since
9am
mm
Dir  Spd
kts
Gust
kts
Height
m
Period
s
Dir
03/01:00am NW 14 21 - - - - - - - 12.1 1008.3 -
03/12:30am NW 11 17 - - - - - - - 12.0 1008.6 -
03/12:00am NW 12 19 - - - - - - - 12.1 1008.9 -
 
Date/Time
EST
Wind Sea
Height
m
Swell Vis
km
Cloud Weather Temp
°C
Press
MSL
hPa
Rain since
9am
mm
Dir  Spd
kts
Gust
kts
Height
m
Period
s
Dir
02/11:30pm NW 11 19 - - - - - - - 12.0 1009.3 -
02/11:00pm NW 12 17 - - - - - - - 12.0 1009.6 -
02/10:30pm NW 13 19 - - - - - - - 12.0 1009.9 -
02/10:00pm NW 12 19 - - - - - - - 11.8 1010.2 -
02/09:30pm NW 13 17 - - - - - - - 11.6 1010.4 -
02/09:00pm NNW 11 16 - - - - - - - 11.7 1010.4 -
02/08:30pm NW 10 13 - - - - - - - 12.0 1010.6 -
02/08:00pm NW 10 13 - - - - - - - 12.2 1010.6 -
02/07:30pm NNW 9 13 - - - - - - - 12.1 1010.5 -
02/07:00pm NW 11 17 - - - - - - - 12.4 1010.5 -
02/06:30pm NW 13 20 - - - - - - - 12.6 1010.4 -
02/06:00pm NW 7 15 - - - - - - - 13.2 1010.4 -
02/05:30pm NW 9 13 - - - - - - - 13.3 1010.3 -
02/05:00pm NW 12 18 - - - - - - - 13.7 1010.3 -
02/04:30pm NW 11 15 - - - - - - - 13.7 1010.5 -
02/04:00pm WNW 10 15 - - - - - - - 12.8 1010.8 -
02/03:30pm WNW 12 17 - - - - - - - 13.3 1011.1 -
02/03:00pm WNW 14 19 - - - - - - - 12.6 1011.3 -
02/02:30pm WNW 14 19 - - - - - - - 13.2 1011.4 -
02/02:00pm WNW 11 16 - - - - - - - 13.0 1011.7 -
02/01:30pm WNW 12 21 - - - - - - - 13.6 1012.1 -
02/01:00pm NW 12 18 - - - - - - - 13.5 1012.6 -
02/12:30pm WNW 11 17 - - - - - - - 12.9 1013.0 -
02/12:00pm NW 11 15 - - - - - - - 13.3 1013.2 -
02/11:30am NNW 9 13 - - - - - - - 12.8 1013.5 -
02/11:00am WNW 10 17 - - - - - - - 12.1 1013.9 -
02/10:30am NNW 9 13 - - - - - - - 12.8 1013.9 -
02/10:00am NNW 9 13 - - - - - - - 12.5 1013.9 -
02/09:30am NNW 10 13 - - - - - - - 12.1 1014.0 -
02/09:00am NNW 9 11 - - - - - - - 11.4 1014.0 -
02/08:30am NNW 7 9 - - - - - - - 11.6 1014.1 -
02/08:00am NNW 9 11 - - - - - - - 11.1 1013.9 -
02/07:30am NNW 7 11 - - - - - - - 11.0 1013.9 -
02/07:00am NNW 7 9 - - - - - - - 10.8 1013.7 -
02/06:30am NW 7 9 - - - - - - - 10.5 1013.6 -
02/06:00am NNW 9 11 - - - - - - - 10.6 1013.5 -
02/05:30am NNW 6 8 - - - - - - - 10.8 1013.5 -
02/05:00am NW 5 7 - - - - - - - 10.7 1013.5 -
02/04:30am NNW 6 8 - - - - - - - 10.5 1013.3 -
02/04:00am NW 6 8 - - - - - - - 10.6 1013.2 -
02/03:30am NW 4 6 - - - - - - - 10.6 1013.4 -
02/03:00am NW 3 5 - - - - - - - 10.6 1013.6 -
02/02:30am WNW 3 5 - - - - - - - 10.7 1013.9 -
02/02:00am W 3 5 - - - - - - - 11.0 1014.0 -
02/01:30am W 3 5 - - - - - - - 11.1 1013.9 -
02/01:00am W 4 6 - - - - - - - 11.2 1013.8 -
02/12:30am WSW 6 9 - - - - - - - 11.4 1013.7 -
02/12:00am WSW 4 7 - - - - - - - 11.3 1013.7 -
 
Date/Time
EST
Wind Sea
Height
m
Swell Vis
km
Cloud Weather Temp
°C
Press
MSL
hPa
Rain since
9am
mm
Dir  Spd
kts
Gust
kts
Height
m
Period
s
Dir
01/11:30pm W 4 6 - - - - - - - 11.6 1013.7 -
01/11:00pm W 5 8 - - - - - - - 12.1 1013.7 -
01/10:30pm WSW 8 12 - - - - - - - 12.5 1013.3 -
01/10:00pm SW 10 14 - - - - - - - 12.6 1013.2 -
01/09:30pm SW 11 14 - - - - - - - 12.5 1013.0 -
01/09:00pm SW 8 11 - - - - - - - 12.8 1012.5 -
01/08:30pm SW 7 10 - - - - - - - 12.9 1012.4 -
01/08:00pm SW 9 14 - - - - - - - 12.9 1011.9 -
01/07:30pm WNW 12 18 - - - - - - - 14.0 1011.0 -
01/07:00pm NW 11 18 - - - - - - - 14.2 1010.7 -
01/06:30pm NW 12 16 - - - - - - - 13.9 1010.5 -
01/06:00pm NNW 15 24 - - - - - - - 13.9 1010.3 -
01/05:30pm NNW 14 20 - - - - - - - 13.9 1010.1 -
01/05:00pm NNW 15 18 - - - - - - - 14.1 1009.7 -
01/04:30pm NNW 13 19 - - - - - - - 13.7 1010.6 -
01/04:00pm NNW 14 18 - - - - - - - 14.1 1010.5 -
01/03:30pm NNW 14 20 - - - - - - - 13.8 1011.1 -
01/03:11pm NW 15 23 - - - - - - - 14.4 1011.4 -
01/03:01pm WNW 15 26 - - - - - - - 15.0 1011.6 -
01/03:00pm WNW 16 26 - - - - - - - 15.0 1011.6 -
01/02:45pm W 18 27 - - - - - - - 16.6 1011.2 -
01/02:30pm WNW 16 24 - - - - - - - 18.1 1011.0 -
01/02:08pm NW 15 27 - - - - - - - 18.3 1010.9 -
01/02:04pm NW 16 24 - - - - - - - 18.2 1011.1 -
01/02:00pm NW 15 24 - - - - - - - 18.3 1011.1 -
01/01:45pm NW 18 30 - - - - - - - 18.7 1011.2 -
01/01:32pm NW 17 27 - - - - - - - 18.6 1011.3 -
01/01:30pm NW 17 27 - - - - - - - 18.7 1011.3 -
01/01:08pm NW 19 30 - - - - - - - 19.2 1010.8 -
01/01:00pm NW 19 27 - - - - - - - 19.4 1011.1 -
01/12:56pm NW 19 27 - - - - - - - 19.2 1011.2 -
01/12:35pm NW 17 29 - - - - - - - 18.8 1011.6 -
01/12:30pm NNW 17 23 - - - - - - - 18.6 1011.7 -
01/12:00pm NNW 19 25 - - - - - - - 17.6 1012.0 -
01/11:30am NNW 16 22 - - - - - - - 17.6 1012.6 -
01/11:00am NNW 16 21 - - - - - - - 17.0 1013.1 -
01/10:30am NNW 16 23 - - - - - - - 16.5 1013.4 -
01/10:17am NNW 19 24 - - - - - - - 16.6 1013.4 -
01/10:07am NNW 16 26 - - - - - - - 16.6 1013.6 -
01/10:00am NNW 17 23 - - - - - - - 16.5 1013.8 -
01/09:30am NNW 17 23 - - - - - - - 16.2 1014.2 -
01/09:00am NNW 17 21 - - - - - - - 15.5 1014.6 -
01/08:30am NNW 14 18 - - - - - - - 14.9 1015.2 -
01/08:00am NNW 11 15 - - - - - - - 14.1 1015.6 -
01/07:30am NNW 12 15 - - - - - - - 13.6 1015.6 -
01/07:00am NNW 12 17 - - - - - - - 13.2 1015.8 -
01/06:30am NNW 15 20 - - - - - - - 12.9 1016.0 -
01/06:00am NNW 15 21 - - - - - - - 12.8 1016.1 -
01/05:30am NNW 11 15 - - - - - - - 12.7 1016.8 -
01/05:00am NNW 7 12 - - - - - - - 12.7 1017.5 -
01/04:30am N 8 10 - - - - - - - 12.3 1017.8 -
01/04:00am NNW 5 6 - - - - - - - 11.5 1018.4 -
01/03:30am NW 5 7 - - - - - - - 11.2 1018.9 -
01/03:00am NW 4 6 - - - - - - - 9.8 1019.6 -
01/02:30am NW 3 5 - - - - - - - 10.7 1020.4 -
01/02:00am W 3 5 - - - - - - - 8.7 1020.9 -
01/01:30am WSW 1 3 - - - - - - - 8.7 1021.3 -
01/01:00am SSW 3 5 - - - - - - - 9.1 1021.4 -
01/12:30am WSW 3 4 - - - - - - - 9.7 1021.8 -
01/12:00am SW 2 4 - - - - - - - 10.4 1022.4 -
 
Date/Time
EST
Wind Sea
Height
m
Swell Vis
km
Cloud Weather Temp
°C
Press
MSL
hPa
Rain since
9am
mm
Dir  Spd
kts
Gust
kts
Height
m
Period
s
Dir
31/11:30pm W 3 4 - - - - - - - 10.4 1022.9 -
31/11:00pm SW 4 7 - - - - - - - 9.9 1023.5 -
31/10:30pm WSW 2 3 - - - - - - - 10.2 1024.1 -
31/10:00pm SW 1 2 - - - - - - - 10.7 1024.1 -
31/09:30pm SW 2 3 - - - - - - - 10.8 1024.5 -
31/09:00pm SW 3 4 - - - - - - - 11.5 1024.8 -
31/08:30pm WSW 2 3 - - - - - - - 12.0 1024.9 -
31/08:00pm SW 2 3 - - - - - - - 12.7 1025.2 -
31/07:30pm SW 3 3 - - - - - - - 13.4 1025.4 -
31/07:00pm CALM 0 1 - - - - - - - 14.2 1025.4 -
31/06:30pm ESE 2 2 - - - - - - - 14.7 1025.5 -
31/06:00pm SE 2 3 - - - - - - - 14.9 1025.7 -
31/05:30pm SE 2 3 - - - - - - - 15.2 1025.7 -
31/05:00pm ESE 4 6 - - - - - - - 15.2 1025.8 -
31/04:30pm E 5 6 - - - - - - - 15.3 1026.1 -
31/04:00pm ESE 5 7 - - - - - - - 15.2 1026.5 -
31/03:30pm ESE 6 7 - - - - - - - 15.1 1027.0 -
31/03:00pm ESE 5 6 - - - - - - - 14.7 1027.4 -
31/02:30pm ESE 5 6 - - - - - - - 14.4 1027.8 -
31/02:00pm E 4 6 - - - - - - - 13.6 1028.2 -
31/01:30pm E 5 6 - - - - - - - 12.8 1028.8 -
31/01:00pm ENE 5 6 - - - - - - - 12.6 1029.5 -
31/12:30pm ENE 5 6 - - - - - - - 12.1 1030.0 -
31/12:00pm ENE 5 6 - - - - - - - 11.4 1030.6 -
31/11:30am NE 6 8 - - - - - - - 10.6 1031.0 -
31/11:00am NE 6 8 - - - - - - - 10.1 1031.4 -
31/10:30am NE 6 7 - - - - - - - 9.8 1031.7 -
31/10:00am NNE 6 8 - - - - - - - 9.8 1031.9 -
31/09:30am NNE 8 11 - - - - - - - 9.5 1032.0 -
31/09:00am N 6 9 - - - - - - - 10.0 1032.0 -
31/08:30am N 7 9 - - - - - - - 10.0 1032.1 -
31/08:00am NNW 4 5 - - - - - - - 10.4 1032.1 -
31/07:30am NNW 2 4 - - - - - - - 10.4 1032.0 -
31/07:00am NNW 3 5 - - - - - - - 10.4 1031.9 -
31/06:30am NW 3 6 - - - - - - - 10.5 1031.9 -
31/06:00am WNW 3 5 - - - - - - - 10.3 1032.1 -
31/05:30am WNW 3 5 - - - - - - - 10.3 1032.2 -
31/05:00am W 3 5 - - - - - - - 10.6 1032.1 -
31/04:30am WSW 2 4 - - - - - - - 10.6 1031.8 -
31/04:00am WNW 1 2 - - - - - - - 10.8 1031.9 -
31/03:30am NW 2 4 - - - - - - - 10.8 1032.1 -
31/03:00am WSW 2 5 - - - - - - - 10.8 1032.4 -
31/02:30am WSW 3 5 - - - - - - - 11.0 1032.8 -
31/02:00am W 3 6 - - - - - - - 10.8 1032.8 -
31/01:30am SSW 1 3 - - - - - - - 11.1 1033.0 -

Other formats

Comma delimited format used in spreadsheet applications
http://www.bom.gov.au/fwo/IDV60701/IDV60701.95826.axf

JavaScript Object Notation format (JSON) in row-major order
http://www.bom.gov.au/fwo/IDV60701/IDV60701.95826.json

Data quality

Most of these data are generated automatically and are frequently updated. Quality checks on data are not normally performed. It is possible for incorrect values to appear. Refer to information at About Latest Weather Observations and please check the disclaimer before using these data.